Time;durP1;ratioP1;P1;durP2;ratioP2;P2;SDS_P1;SDS_P2;PMS_P1;PMS_P2;Temp;Humidity;BMP_temperature;BMP_pressure;BME280_temperature;BME280_humidity;BME280_pressure;Samples;Min_cycle;Max_cycle;Signal;HPM_P1;HPM_P2
2022/10/30 07:51:32;;;;;;;3.23;1.63;;;;;;;19.52;39.00;99600.50;6203288;22;20216;-87
2022/10/30 07:53:57;;;;;;;3.63;1.50;;;;;;;19.68;38.44;99594.78;6214618;23;20189;-88
2022/10/30 07:56:23;;;;;;;4.23;1.37;;;;;;;19.54;39.01;99603.06;6188725;23;20240;-89
2022/10/30 07:58:48;;;;;;;4.33;1.47;;;;;;;19.68;39.05;99600.09;6214998;23;20150;-89
2022/10/30 08:01:16;;;;;;;2.83;1.47;;;;;;;19.93;38.49;99591.78;6188756;23;20154;-88
2022/10/30 08:03:41;;;;;;;4.60;1.60;;;;;;;20.08;38.75;99582.50;6214969;23;20146;-88
2022/10/30 08:06:07;;;;;;;4.87;1.73;;;;;;;20.26;38.46;99580.13;6214934;23;20160;-89
2022/10/30 08:08:33;;;;;;;4.53;1.73;;;;;;;20.41;37.54;99578.00;6214859;23;20228;-87
2022/10/30 08:10:58;;;;;;;5.00;2.37;;;;;;;20.54;37.95;99573.28;6214887;23;20553;-89
2022/10/30 08:13:24;;;;;;;5.07;1.93;;;;;;;20.67;37.51;99574.75;6214983;23;20153;-88
2022/10/30 08:15:49;;;;;;;5.00;1.63;;;;;;;20.83;37.91;99574.25;6214890;23;20564;-88
2022/10/30 08:18:15;;;;;;;3.77;1.47;;;;;;;20.92;37.09;99568.13;6214842;23;20150;-89
2022/10/30 08:20:41;;;;;;;3.87;1.60;;;;;;;21.07;36.77;99572.09;6188535;23;20604;-89
2022/10/30 08:23:07;;;;;;;4.97;1.87;;;;;;;21.33;36.60;99562.63;6214650;23;20184;-89
2022/10/30 08:25:33;;;;;;;3.87;1.37;;;;;;;21.62;35.86;99564.50;6214888;23;20659;-89
2022/10/30 08:28:04;;;;;;;4.30;1.60;;;;;;;21.86;36.27;99570.28;6214907;23;20173;-90
2022/10/30 08:30:36;;;;;;;3.17;1.50;;;;;;;21.92;35.29;99561.72;6188571;23;20474;-90
2022/10/30 08:33:08;;;;;;;2.93;1.30;;;;;;;22.15;35.52;99562.22;6215205;23;20201;-89
2022/10/30 08:35:34;;;;;;;2.37;0.83;;;;;;;22.34;34.13;99555.03;6215045;23;20138;-89
2022/10/30 08:38:01;;;;;;;6.00;1.43;;;;;;;22.46;33.99;99559.19;6214527;23;20224;-91
2022/10/30 08:40:28;;;;;;;3.03;1.10;;;;;;;22.53;33.66;99554.13;6214967;23;20154;-89
2022/10/30 08:42:56;;;;;;;3.17;1.40;;;;;;;22.55;33.91;99560.16;6188705;23;20201;-89
2022/10/30 08:45:28;;;;;;;3.10;1.57;;;;;;;22.60;34.37;99560.56;6188653;23;20157;-89
2022/10/30 08:47:58;;;;;;;2.93;1.23;;;;;;;22.76;34.20;99557.31;6213567;23;20130;-89
2022/10/30 08:50:24;;;;;;;8.97;1.73;;;;;;;22.91;33.47;99551.31;6188149;23;20270;-90
2022/10/30 08:52:50;;;;;;;3.97;1.63;;;;;;;23.20;33.25;99548.47;6214404;23;20130;-89
2022/10/30 08:55:15;;;;;;;3.37;1.43;;;;;;;23.25;32.69;99552.38;6214412;23;20189;-89
2022/10/30 08:57:41;;;;;;;3.33;1.40;;;;;;;23.32;32.53;99549.13;6214361;23;20180;-89
2022/10/30 09:00:07;;;;;;;3.13;1.10;;;;;;;23.49;32.52;99546.47;6214353;23;20592;-91
2022/10/30 09:02:34;;;;;;;3.40;1.60;;;;;;;23.63;32.30;99535.25;6215110;23;20174;-90
2022/10/30 09:04:59;;;;;;;4.97;1.33;;;;;;;23.54;32.56;99538.84;6216318;23;20576;-90
2022/10/30 09:07:25;;;;;;;5.00;1.30;;;;;;;23.81;31.41;99525.38;6217321;23;20145;-90
2022/10/30 09:09:50;;;;;;;2.63;1.43;;;;;;;24.17;30.61;99518.13;6217279;23;20146;-90
2022/10/30 09:12:16;;;;;;;2.50;1.47;;;;;;;24.31;30.36;99527.44;6217258;23;20141;-90
2022/10/30 09:14:41;;;;;;;2.53;1.10;;;;;;;24.45;31.03;99527.66;6217520;23;20150;-90
2022/10/30 09:17:07;;;;;;;3.00;1.20;;;;;;;24.61;31.11;99518.03;6190970;23;20158;-90
2022/10/30 09:19:32;;;;;;;3.60;1.37;;;;;;;24.79;30.73;99524.19;6217201;23;20561;-90
2022/10/30 09:21:58;;;;;;;3.70;1.50;;;;;;;25.03;30.22;99522.44;6217101;23;20181;-90
2022/10/30 09:24:23;;;;;;;2.70;1.30;;;;;;;25.10;30.09;99519.09;6217148;23;20641;-90
2022/10/30 09:26:49;;;;;;;2.67;1.30;;;;;;;25.17;30.04;99520.13;6217478;23;20181;-90
2022/10/30 09:29:14;;;;;;;6.23;1.73;;;;;;;25.16;30.14;99515.78;6217113;23;20146;-91
2022/10/30 09:31:40;;;;;;;4.43;1.93;;;;;;;25.33;29.80;99506.75;6217390;23;20146;-90
2022/10/30 09:34:05;;;;;;;4.10;1.40;;;;;;;25.44;29.78;99509.13;6217087;23;20245;-90
2022/10/30 09:36:31;;;;;;;2.90;1.20;;;;;;;25.47;29.62;99498.91;6217102;23;20146;-90
2022/10/30 09:38:57;;;;;;;2.47;1.23;;;;;;;25.64;29.86;99502.44;6217329;23;20222;-92
2022/10/30 09:41:42;;;;;;;3.93;1.70;;;;;;;25.65;30.32;99490.72;6190652;23;20162;-91
2022/10/30 09:44:20;;;;;;;3.90;1.50;;;;;;;25.75;29.05;99491.38;6190784;23;20145;-90
2022/10/30 09:46:48;;;;;;;3.77;1.57;;;;;;;25.70;30.01;99493.72;6217336;23;20177;-90
2022/10/30 09:49:32;;;;;;;3.70;1.70;;;;;;;25.97;29.64;99485.28;6217311;23;20146;-91
2022/10/30 09:52:20;;;;;;;2.58;1.00;;;;;;;26.34;28.43;99481.22;6216843;23;20192;-90
2022/10/30 09:55:23;;;;;;;4.33;1.23;;;;;;;26.52;28.19;99473.78;6217223;23;20169;-90
2022/10/30 09:58:10;;;;;;;3.73;1.13;;;;;;;26.73;27.76;99474.84;6217557;23;20157;-90
2022/10/30 10:00:42;;;;;;;2.50;1.10;;;;;;;26.94;27.56;99476.97;6190942;23;20145;-90
2022/10/30 10:03:36;;;;;;;3.47;1.23;;;;;;;26.89;28.04;99465.91;6215469;23;20174;-90
2022/10/30 10:06:03;;;;;;;2.30;1.15;;;;;;;27.12;27.72;99464.06;6216842;23;20168;-90
2022/10/30 10:08:36;;;;;;;3.13;1.13;;;;;;;27.33;27.76;99458.88;6216750;23;20146;-90
2022/10/30 10:11:10;;;;;;;7.82;1.45;;;;;;;27.36;27.40;99455.00;6190547;23;20164;-91
2022/10/30 10:13:40;;;;;;;2.92;1.02;;;;;;;27.35;26.56;99456.88;6216465;23;20164;-91
2022/10/30 10:16:25;;;;;;;4.55;1.08;;;;;;;27.32;26.59;99449.16;6216916;23;20586;-91
2022/10/30 10:19:19;;;;;;;2.05;1.00;;;;;;;27.39;27.13;99433.09;6190450;23;20157;-90
2022/10/30 10:21:57;;;;;;;3.05;0.93;;;;;;;27.53;26.48;99432.34;6184811;23;20211;-92
2022/10/30 10:24:31;;;;;;;2.13;0.70;;;;;;;27.42;26.07;99438.16;6216616;23;20153;-90
2022/10/30 10:27:06;;;;;;;2.50;1.05;;;;;;;27.56;27.02;99428.47;6216091;23;20565;-91
2022/10/30 10:29:43;;;;;;;2.35;1.08;;;;;;;27.82;26.82;99416.25;6216073;23;20163;-90
2022/10/30 10:32:14;;;;;;;2.65;1.10;;;;;;;28.11;26.72;99426.28;6216234;23;20177;-91
2022/10/30 10:35:18;;;;;;;3.40;1.63;;;;;;;28.10;25.60;99418.34;6216763;23;20146;-90
2022/10/30 10:37:52;;;;;;;5.50;1.20;;;;;;;28.34;26.38;99418.91;6216755;23;20276;-91
2022/10/30 10:40:51;;;;;;;2.10;0.98;;;;;;;28.59;25.59;99409.47;6190173;23;20497;-91
2022/10/30 10:43:35;;;;;;;5.03;1.13;;;;;;;28.85;24.86;99413.56;6204456;23;20525;-91
2022/10/30 10:46:03;;;;;;;4.70;1.13;;;;;;;28.76;24.89;99403.91;6216407;23;20137;-90
2022/10/30 10:48:56;;;;;;;2.33;1.10;;;;;;;28.93;25.19;99394.56;6216425;23;20154;-91
2022/10/30 10:51:38;;;;;;;2.40;1.20;;;;;;;28.86;24.67;99399.03;6216031;23;20176;-91
2022/10/30 10:54:15;;;;;;;1.83;0.90;;;;;;;29.07;25.63;99389.09;6216625;23;20134;-91
2022/10/30 10:56:44;;;;;;;2.30;0.73;;;;;;;29.42;24.61;99384.69;6190052;23;20532;-92
2022/10/30 10:59:25;;;;;;;3.60;1.48;;;;;;;29.52;23.53;99374.38;6189938;23;20169;-91
2022/10/30 11:01:57;;;;;;;4.60;1.60;;;;;;;29.54;24.93;99376.88;6216906;23;20213;-90
2022/10/30 11:04:34;;;;;;;3.40;1.92;;;;;;;29.33;24.39;99380.44;6216227;23;20149;-91
2022/10/30 11:07:11;;;;;;;3.15;1.30;;;;;;;29.40;24.35;99370.53;6216522;23;20145;-91
2022/10/30 11:09:38;;;;;;;3.03;1.40;;;;;;;29.45;24.13;99365.38;6216931;23;20134;-91
2022/10/30 11:12:03;;;;;;;4.55;1.63;;;;;;;29.46;23.54;99363.50;6215891;23;20177;-90
2022/10/30 11:14:29;;;;;;;3.65;1.20;;;;;;;29.41;24.04;99355.16;6216053;23;20146;-90
2022/10/30 11:17:16;;;;;;;3.13;1.55;;;;;;;29.40;23.42;99348.09;6216464;23;20520;-91
2022/10/30 11:19:41;;;;;;;4.93;1.38;;;;;;;29.61;23.70;99340.75;6216741;23;20145;-90
2022/10/30 11:22:26;;;;;;;2.95;1.77;;;;;;;29.79;24.52;99343.00;6216321;23;20150;-91
2022/10/30 11:24:51;;;;;;;2.53;1.20;;;;;;;29.67;23.64;99345.38;6216662;23;20134;-90
2022/10/30 11:27:23;;;;;;;3.08;1.27;;;;;;;29.90;23.88;99336.22;6216201;23;20576;-91
2022/10/30 11:29:57;;;;;;;2.35;1.10;;;;;;;30.01;23.38;99335.63;6215733;23;20221;-91
2022/10/30 11:32:27;;;;;;;1.98;0.90;;;;;;;30.09;23.27;99335.47;6190589;23;20181;-92
2022/10/30 11:35:16;;;;;;;4.00;2.05;;;;;;;30.02;22.81;99323.78;6190114;23;20241;-91
2022/10/30 11:37:45;;;;;;;2.05;1.20;;;;;;;30.27;23.28;99330.34;6216234;23;20578;-91
2022/10/30 11:40:11;;;;;;;4.13;0.90;;;;;;;30.51;22.63;99316.31;6216142;23;20161;-91
2022/10/30 11:42:48;;;;;;;2.47;0.80;;;;;;;30.78;22.18;99311.81;6189587;23;20249;-90
2022/10/30 11:45:40;;;;;;;2.13;0.80;;;;;;;30.32;23.16;99309.78;6216099;23;20138;-89
2022/10/30 11:48:21;;;;;;;2.97;1.33;;;;;;;30.07;22.84;99310.50;6209853;23;20158;-91
2022/10/30 11:50:49;;;;;;;4.47;1.17;;;;;;;30.17;22.96;99308.25;6215508;23;20193;-90
2022/10/30 11:53:34;;;;;;;1.98;0.50;;;;;;;30.29;23.14;99293.94;6215616;23;20243;-90
2022/10/30 11:56:01;;;;;;;2.90;0.80;;;;;;;30.67;22.36;99288.88;6189554;23;20142;-91
2022/10/30 11:58:32;;;;;;;6.70;2.70;;;;;;;30.87;22.11;99295.16;6215636;23;20215;-91
2022/10/30 12:01:04;;;;;;;6.28;3.03;;;;;;;31.18;22.29;99286.47;6215965;23;20150;-90
2022/10/30 12:03:35;;;;;;;4.57;1.10;;;;;;;31.01;21.80;99290.63;6215739;23;20137;-91
2022/10/30 12:06:28;;;;;;;2.10;0.85;;;;;;;31.06;21.45;99276.44;6189466;23;20221;-90
2022/10/30 12:08:58;;;;;;;2.75;1.02;;;;;;;31.35;21.01;99278.72;6210737;23;20595;-91
2022/10/30 12:11:31;;;;;;;1.95;0.60;;;;;;;31.59;21.37;99275.41;6215486;23;20632;-90
2022/10/30 12:13:57;;;;;;;2.33;0.98;;;;;;;31.42;20.34;99279.59;6215602;23;20156;-91
2022/10/30 12:16:23;;;;;;;1.85;0.43;;;;;;;30.97;20.90;99268.56;6215515;23;20481;-91
2022/10/30 12:19:01;;;;;;;0.88;0.50;;;;;;;31.33;20.52;99267.28;6215712;23;20150;-92
2022/10/30 12:21:29;;;;;;;1.27;0.35;;;;;;;31.50;20.61;99268.53;6215566;23;20138;-92
2022/10/30 12:24:05;;;;;;;2.70;0.90;;;;;;;31.37;20.83;99266.63;6215606;23;20175;-92
2022/10/30 12:26:33;;;;;;;1.33;0.50;;;;;;;31.37;20.77;99257.69;6215486;23;20578;-92
2022/10/30 12:29:02;;;;;;;1.88;1.00;;;;;;;31.40;20.43;99257.25;6188807;23;20486;-90
2022/10/30 12:31:34;;;;;;;3.58;0.52;;;;;;;31.44;19.53;99261.22;6215227;23;20215;-91
2022/10/30 12:34:12;;;;;;;1.13;0.50;;;;;;;31.33;19.96;99260.00;6215747;23;20134;-92
2022/10/30 12:36:51;;;;;;;1.27;0.68;;;;;;;31.07;20.74;99267.31;6215738;23;20141;-90
2022/10/30 12:39:34;;;;;;;1.35;0.63;;;;;;;31.30;20.43;99256.88;6189013;23;20232;-91
2022/10/30 12:42:09;;;;;;;0.73;0.38;;;;;;;31.59;20.63;99256.44;6215372;23;20134;-90
2022/10/30 12:44:50;;;;;;;3.78;0.60;;;;;;;31.68;19.89;99255.16;6215678;23;20133;-90
2022/10/30 12:47:37;;;;;;;1.45;0.35;;;;;;;31.75;19.74;99252.41;6215696;23;20130;-91
2022/10/30 12:50:16;;;;;;;1.70;0.60;;;;;;;31.43;18.90;99249.56;6214636;23;20228;-92
2022/10/30 12:52:48;;;;;;;2.72;0.60;;;;;;;31.30;19.10;99246.03;6215075;23;20181;-91
2022/10/30 12:55:16;;;;;;;1.58;0.30;;;;;;;31.19;19.85;99252.06;6215325;23;20209;-91
2022/10/30 12:57:48;;;;;;;2.40;0.60;;;;;;;30.95;19.92;99248.97;6215551;23;20150;-91
2022/10/30 13:00:16;;;;;;;3.97;0.70;;;;;;;30.90;19.95;99242.47;6215297;23;20142;-91
2022/10/30 13:02:50;;;;;;;4.32;0.82;;;;;;;31.02;20.11;99238.97;6189069;23;20168;-92
2022/10/30 13:05:28;;;;;;;1.20;0.55;;;;;;;30.96;20.26;99241.69;6215980;23;20613;-91
2022/10/30 13:08:12;;;;;;;3.10;0.52;;;;;;;31.21;20.29;99234.56;6215263;23;20134;-91
2022/10/30 13:10:48;;;;;;;2.30;0.50;;;;;;;31.39;20.28;99236.66;6215531;23;20154;-92
2022/10/30 13:13:19;;;;;;;2.75;0.73;;;;;;;31.47;20.16;99239.97;6215597;23;20600;-91
2022/10/30 13:15:53;;;;;;;1.23;0.55;;;;;;;31.44;20.06;99237.69;6214626;23;20212;-90
2022/10/30 13:18:28;;;;;;;1.08;0.60;;;;;;;31.68;19.71;99235.34;6215502;23;20217;-90
2022/10/30 13:21:23;;;;;;;2.88;0.77;;;;;;;31.79;20.14;99235.50;6190893;23;20160;-91
2022/10/30 13:23:57;;;;;;;2.63;0.88;;;;;;;31.62;19.73;99231.63;6215826;23;20134;-91
2022/10/30 13:26:46;;;;;;;2.72;0.70;;;;;;;31.51;20.17;99232.25;6189398;23;20145;-91
2022/10/30 13:29:53;;;;;;;1.48;0.60;;;;;;;31.76;20.21;99230.50;6215510;23;20177;-91
2022/10/30 13:32:55;;;;;;;1.15;0.40;;;;;;;31.87;19.71;99221.72;6215747;23;20173;-91
2022/10/30 13:35:42;;;;;;;0.75;0.50;;;;;;;31.94;19.54;99225.25;6210836;23;20138;-90
2022/10/30 13:38:31;;;;;;;1.00;0.40;;;;;;;31.77;19.39;99220.50;6214749;23;20244;-90
2022/10/30 13:41:21;;;;;;;1.17;0.40;;;;;;;31.77;19.99;99226.75;6215296;23;20134;-90
2022/10/30 13:44:28;;;;;;;1.08;0.40;;;;;;;31.89;19.35;99218.81;6214768;23;20299;-91
2022/10/30 13:47:21;;;;;;;1.15;0.40;;;;;;;31.80;20.29;99220.91;6174267;23;20181;-90
2022/10/30 13:49:54;;;;;;;7.93;0.60;;;;;;;31.80;20.09;99218.22;6214753;23;20286;-91
2022/10/30 13:52:21;;;;;;;2.25;0.70;;;;;;;31.83;19.98;99217.78;6215974;23;20189;-92
2022/10/30 13:54:59;;;;;;;3.60;0.40;;;;;;;31.91;19.77;99212.13;6216349;23;20188;-91
2022/10/30 13:57:39;;;;;;;1.13;0.70;;;;;;;31.99;20.24;99222.75;6216345;23;20569;-91
2022/10/30 14:00:27;;;;;;;1.27;0.50;;;;;;;31.89;19.46;99211.47;6190379;23;20228;-91
2022/10/30 14:03:14;;;;;;;1.92;0.70;;;;;;;31.72;20.33;99213.03;6216888;23;20163;-92
2022/10/30 14:05:52;;;;;;;2.60;0.63;;;;;;;31.44;20.02;99207.88;6216966;23;20583;-92
2022/10/30 14:08:36;;;;;;;4.20;0.85;;;;;;;31.27;19.73;99211.22;6216545;23;20145;-90
2022/10/30 14:11:04;;;;;;;2.80;0.60;;;;;;;31.40;20.27;99198.50;6216277;23;20223;-91
2022/10/30 14:14:07;;;;;;;1.13;0.50;;;;;;;31.42;19.86;99201.00;6189746;23;20190;-90
2022/10/30 14:16:40;;;;;;;1.85;0.60;;;;;;;31.35;20.13;99205.59;6212139;23;20580;-90
2022/10/30 14:19:16;;;;;;;2.38;0.55;;;;;;;31.31;20.53;99198.94;6213867;23;20156;-91
2022/10/30 14:21:59;;;;;;;2.38;0.80;;;;;;;31.26;19.65;99194.16;6188936;23;20165;-90
2022/10/30 14:24:33;;;;;;;2.38;0.82;;;;;;;31.12;20.56;99203.34;6214701;23;20223;-91
2022/10/30 14:27:07;;;;;;;1.60;0.50;;;;;;;30.97;20.47;99203.59;6189905;23;20650;-91
2022/10/30 14:29:42;;;;;;;3.70;0.50;;;;;;;30.95;20.61;99208.34;6188523;23;20154;-91
2022/10/30 14:32:13;;;;;;;1.92;0.77;;;;;;;30.89;20.68;99198.34;6216172;23;20179;-91
2022/10/30 14:34:49;;;;;;;2.05;0.75;;;;;;;30.87;20.60;99203.13;6214611;23;20592;-91
2022/10/30 14:37:27;;;;;;;2.30;0.75;;;;;;;30.64;20.50;99197.28;6216884;23;20138;-91
2022/10/30 14:39:55;;;;;;;2.53;0.70;;;;;;;30.41;21.30;99203.09;6190204;23;20145;-90
2022/10/30 14:42:36;;;;;;;1.55;0.80;;;;;;;30.26;21.17;99204.28;6215900;23;20475;-91
2022/10/30 14:45:17;;;;;;;3.80;0.88;;;;;;;30.19;21.75;99198.84;6216387;23;20134;-91
2022/10/30 14:47:49;;;;;;;2.80;0.90;;;;;;;30.03;22.03;99204.63;6216734;23;20136;-91
2022/10/30 14:50:23;;;;;;;3.47;0.93;;;;;;;29.94;22.24;99205.84;6216329;23;20238;-91
2022/10/30 14:53:01;;;;;;;2.03;0.90;;;;;;;29.75;22.17;99199.31;6190011;23;20181;-91
2022/10/30 14:55:37;;;;;;;2.38;0.95;;;;;;;29.58;22.87;99206.09;6190075;23;20157;-91
2022/10/30 14:58:02;;;;;;;3.35;1.27;;;;;;;29.38;22.93;99202.44;6190023;23;20165;-90
2022/10/30 15:00:31;;;;;;;5.95;1.77;;;;;;;29.19;23.09;99203.13;6216259;23;20154;-91
2022/10/30 15:03:14;;;;;;;4.70;1.48;;;;;;;28.94;23.02;99201.88;6216113;23;20269;-90
2022/10/30 15:05:55;;;;;;;4.95;1.60;;;;;;;28.76;23.07;99198.84;6216918;23;20164;-91
2022/10/30 15:08:39;;;;;;;1.95;1.17;;;;;;;28.48;23.73;99202.31;6189911;23;20560;-91
2022/10/30 15:11:23;;;;;;;5.35;1.67;;;;;;;28.30;24.00;99195.69;6216475;23;20145;-90
2022/10/30 15:13:54;;;;;;;3.33;1.02;;;;;;;28.21;23.98;99194.97;6216033;23;20613;-90
2022/10/30 15:16:21;;;;;;;3.25;1.05;;;;;;;28.04;24.63;99191.69;6216163;23;20142;-91
2022/10/30 15:18:56;;;;;;;2.55;0.93;;;;;;;27.86;24.70;99188.53;6216072;23;20150;-90
2022/10/30 15:21:24;;;;;;;7.57;1.38;;;;;;;27.73;24.90;99184.84;6216716;23;20209;-90
2022/10/30 15:23:53;;;;;;;2.95;1.17;;;;;;;27.57;25.36;99187.78;6216321;23;20156;-90
2022/10/30 15:26:22;;;;;;;8.80;2.78;;;;;;;27.42;25.72;99188.59;6216993;23;20224;-90
2022/10/30 15:28:52;;;;;;;5.75;1.35;;;;;;;27.32;26.00;99188.03;6189672;23;20161;-90
2022/10/30 15:31:26;;;;;;;7.38;1.48;;;;;;;27.17;26.33;99181.81;6216666;23;20150;-90
2022/10/30 15:33:53;;;;;;;6.13;2.17;;;;;;;26.97;26.09;99186.03;6215823;23;20254;-90
2022/10/30 15:36:20;;;;;;;4.63;2.05;;;;;;;26.87;26.50;99182.78;6215923;23;20149;-90
2022/10/30 15:39:05;;;;;;;5.93;2.30;;;;;;;26.77;26.74;99184.91;6215917;23;20227;-90
2022/10/30 15:41:31;;;;;;;5.32;1.77;;;;;;;26.72;26.80;99185.41;6189991;23;20157;-90
2022/10/30 15:44:00;;;;;;;6.13;2.30;;;;;;;26.57;27.22;99189.09;6190617;23;20154;-90
2022/10/30 15:46:25;;;;;;;6.82;2.10;;;;;;;26.45;27.07;99193.19;6189935;23;20224;-90
2022/10/30 15:48:51;;;;;;;6.07;2.40;;;;;;;26.17;27.57;99193.75;6215797;23;20197;-91
2022/10/30 15:51:20;;;;;;;5.83;2.33;;;;;;;25.84;28.11;99196.78;6188761;23;20491;-90
2022/10/30 15:53:48;;;;;;;3.60;1.90;;;;;;;25.61;28.48;99200.22;6188569;23;20181;-89
2022/10/30 15:56:25;;;;;;;3.37;1.67;;;;;;;25.38;28.99;99193.06;6187014;23;20160;-89
2022/10/30 15:59:03;;;;;;;6.30;2.27;;;;;;;25.26;28.77;99195.28;6213281;23;20155;-89
2022/10/30 16:01:33;;;;;;;5.07;1.90;;;;;;;25.17;28.95;99190.13;6213194;23;20134;-89
2022/10/30 16:03:59;;;;;;;5.30;2.37;;;;;;;25.11;28.93;99193.47;6186941;23;20883;-89
2022/10/30 16:06:30;;;;;;;3.83;1.90;;;;;;;25.01;29.14;99202.56;6187174;23;20154;-88
2022/10/30 16:08:56;;;;;;;5.53;2.13;;;;;;;24.96;29.02;99198.72;6187231;23;20273;-89
2022/10/30 16:11:24;;;;;;;8.03;3.33;;;;;;;24.75;29.72;99211.78;6187425;23;20161;-89
2022/10/30 16:13:51;;;;;;;6.30;2.83;;;;;;;24.53;30.25;99205.25;6215155;23;20196;-89
2022/10/30 16:16:25;;;;;;;4.97;2.30;;;;;;;24.26;30.62;99205.56;6215597;23;20604;-89
2022/10/30 16:18:51;;;;;;;7.27;3.10;;;;;;;24.15;30.65;99196.00;6189275;23;20531;-89
2022/10/30 16:21:21;;;;;;;7.97;3.30;;;;;;;24.07;30.40;99203.16;6189284;23;20184;-89
2022/10/30 16:23:52;;;;;;;8.67;3.40;;;;;;;23.88;31.05;99208.78;6189656;23;20149;-89
2022/10/30 16:26:31;;;;;;;12.87;3.37;;;;;;;23.74;31.31;99218.31;6215797;23;20491;-89
2022/10/30 16:29:01;;;;;;;6.53;2.53;;;;;;;23.65;31.21;99217.44;6215483;23;20158;-88
2022/10/30 16:31:33;;;;;;;7.93;3.10;;;;;;;23.57;31.43;99219.22;6189110;23;20158;-89
2022/10/30 16:33:59;;;;;;;7.43;2.83;;;;;;;23.44;31.80;99214.31;6189190;23;20154;-88
2022/10/30 16:36:25;;;;;;;9.87;2.93;;;;;;;23.38;31.72;99225.66;6189133;23;20149;-88
2022/10/30 16:38:51;;;;;;;6.67;2.50;;;;;;;23.19;32.21;99225.88;6188633;23;20168;-88
2022/10/30 16:41:17;;;;;;;6.87;2.60;;;;;;;23.16;31.95;99231.53;6188768;23;20457;-89
2022/10/30 16:44:11;;;;;;;4.90;2.23;;;;;;;23.19;32.07;99226.69;6189077;23;20153;-88
2022/10/30 16:46:40;;;;;;;5.73;2.20;;;;;;;23.15;32.13;99235.19;6215927;23;20150;-88
2022/10/30 16:49:25;;;;;;;6.13;2.97;;;;;;;23.14;32.27;99229.00;6189088;23;20160;-89
2022/10/30 16:51:58;;;;;;;6.87;1.97;;;;;;;23.22;32.28;99236.22;6215120;23;20639;-89
2022/10/30 16:54:34;;;;;;;4.27;1.97;;;;;;;23.19;31.80;99236.56;6189189;23;20149;-89
2022/10/30 16:57:02;;;;;;;10.20;2.23;;;;;;;22.90;32.99;99234.19;6216085;23;20433;-89
2022/10/30 16:59:48;;;;;;;7.10;2.27;;;;;;;22.45;33.57;99231.63;6215340;23;20299;-88
2022/10/30 17:02:18;;;;;;;6.53;2.83;;;;;;;22.23;33.69;99237.41;6190203;23;20236;-88
2022/10/30 17:04:48;;;;;;;8.67;3.60;;;;;;;22.20;33.83;99236.84;6215076;23;20157;-88
2022/10/30 17:07:19;;;;;;;8.10;2.93;;;;;;;22.17;33.86;99232.66;6188588;23;20150;-88
2022/10/30 17:09:47;;;;;;;7.90;2.97;;;;;;;22.17;33.42;99235.31;6188742;23;20141;-88
2022/10/30 17:12:23;;;;;;;10.53;2.97;;;;;;;22.08;33.80;99230.91;6188390;23;20273;-88
2022/10/30 17:15:12;;;;;;;9.57;2.97;;;;;;;21.96;34.06;99237.44;6188841;23;20146;-88
2022/10/30 17:17:40;;;;;;;11.27;2.97;;;;;;;21.95;34.25;99231.28;6215177;23;20130;-88
2022/10/30 17:20:08;;;;;;;7.07;2.40;;;;;;;21.86;34.37;99234.84;6188926;23;20161;-88
2022/10/30 17:22:35;;;;;;;5.83;1.90;;;;;;;21.92;34.10;99238.72;6215348;23;20156;-88
2022/10/30 17:25:14;;;;;;;5.13;1.90;;;;;;;21.78;34.42;99241.84;6215418;23;20153;-88
2022/10/30 17:27:49;;;;;;;4.93;1.57;;;;;;;21.67;34.81;99239.41;6217793;23;20672;-88
2022/10/30 17:30:40;;;;;;;4.47;1.60;;;;;;;21.64;34.90;99243.22;6217571;23;20172;-88
2022/10/30 17:33:36;;;;;;;2.77;1.37;;;;;;;21.62;35.06;99237.16;6190842;23;20185;-88
2022/10/30 17:36:05;;;;;;;7.57;2.10;;;;;;;21.49;35.07;99235.84;6185804;23;20173;-88
2022/10/30 17:38:32;;;;;;;4.53;1.90;;;;;;;21.32;35.47;99238.28;6212567;23;20176;-88
2022/10/30 17:40:58;;;;;;;5.10;1.70;;;;;;;21.27;35.17;99239.72;6216495;23;20649;-88
2022/10/30 17:43:29;;;;;;;2.90;1.50;;;;;;;21.28;35.19;99244.88;6189807;23;20176;-88
2022/10/30 17:45:56;;;;;;;4.77;1.77;;;;;;;21.17;35.13;99237.06;6190651;23;20221;-88
2022/10/30 17:48:26;;;;;;;7.13;1.80;;;;;;;21.19;35.20;99240.44;6216327;23;20224;-88
2022/10/30 17:50:54;;;;;;;5.03;1.57;;;;;;;21.29;34.98;99241.25;6153704;23;20203;-88
2022/10/30 17:53:23;;;;;;;7.20;2.67;;;;;;;21.17;34.92;99250.38;6156228;23;20270;-88
2022/10/30 17:55:55;;;;;;;7.03;2.40;;;;;;;21.02;35.15;99245.63;6156834;23;20171;-88
2022/10/30 17:58:21;;;;;;;5.83;2.03;;;;;;;20.90;35.27;99244.97;6106248;23;20162;-88
2022/10/30 18:00:48;;;;;;;5.00;2.20;;;;;;;20.72;35.74;99238.69;6156511;23;20147;-89
2022/10/30 18:03:14;;;;;;;4.83;2.10;;;;;;;20.57;35.88;99243.59;6130431;23;20583;-88
2022/10/30 18:05:42;;;;;;;5.17;1.87;;;;;;;20.58;35.79;99244.44;6157017;23;20178;-88
2022/10/30 18:08:09;;;;;;;3.77;1.60;;;;;;;20.45;35.93;99241.22;6156418;23;20155;-88
2022/10/30 18:10:35;;;;;;;6.90;1.80;;;;;;;20.24;36.36;99236.00;6155269;23;20209;-88
2022/10/30 18:13:00;;;;;;;3.10;1.53;;;;;;;20.41;36.03;99247.81;6155855;23;20481;-89
2022/10/30 18:15:35;;;;;;;6.23;1.70;;;;;;;20.55;35.60;99242.03;6129629;23;20159;-88
2022/10/30 18:18:04;;;;;;;6.27;1.60;;;;;;;20.32;36.11;99243.31;6155514;23;20154;-88
2022/10/30 18:20:30;;;;;;;3.23;1.60;;;;;;;20.20;36.13;99245.25;6154922;23;20245;-88
2022/10/30 18:22:56;;;;;;;4.50;1.60;;;;;;;20.08;36.55;99241.00;6156008;23;20143;-88
2022/10/30 18:25:25;;;;;;;3.93;1.53;;;;;;;19.93;36.72;99237.91;6130193;23;20166;-88
2022/10/30 18:27:51;;;;;;;6.77;1.53;;;;;;;19.85;36.94;99240.41;6130713;23;20155;-88
2022/10/30 18:30:17;;;;;;;1.73;1.27;;;;;;;19.98;36.84;99235.69;6156499;23;20502;-88
2022/10/30 18:32:43;;;;;;;3.03;1.10;;;;;;;20.09;36.44;99240.03;6156771;23;20502;-88
2022/10/30 18:35:35;;;;;;;3.33;1.50;;;;;;;19.98;36.77;99238.34;6156434;23;20226;-88
2022/10/30 18:38:01;;;;;;;3.73;1.60;;;;;;;19.78;37.06;99241.09;6156351;23;20214;-88
2022/10/30 18:40:27;;;;;;;3.17;1.37;;;;;;;19.76;37.37;99246.53;6156194;23;20158;-89
2022/10/30 18:42:53;;;;;;;3.57;1.50;;;;;;;19.57;37.64;99241.97;6156841;23;20217;-88
2022/10/30 18:45:18;;;;;;;4.70;1.50;;;;;;;19.41;38.12;99240.81;6130677;23;20250;-88
2022/10/30 18:47:44;;;;;;;2.80;1.40;;;;;;;19.44;37.92;99238.72;6155954;23;20158;-88
2022/10/30 18:50:10;;;;;;;3.03;1.37;;;;;;;19.60;37.51;99238.25;6130198;23;20151;-89
2022/10/30 18:52:36;;;;;;;3.37;1.67;;;;;;;19.73;37.13;99244.16;6180591;23;20523;-89
2022/10/30 18:55:11;;;;;;;3.20;0.97;;;;;;;19.60;36.80;99236.41;6185123;23;20226;-89
2022/10/30 18:57:37;;;;;;;3.33;1.47;;;;;;;19.53;37.51;99239.72;6186281;23;20277;-88
2022/10/30 19:00:05;;;;;;;3.07;1.47;;;;;;;19.63;37.05;99234.47;6185874;23;20610;-88
2022/10/30 19:02:30;;;;;;;4.10;1.50;;;;;;;19.71;36.79;99237.28;6185836;23;20153;-88
2022/10/30 19:04:56;;;;;;;3.83;1.53;;;;;;;19.71;36.95;99232.78;6185826;23;20153;-89
2022/10/30 19:07:21;;;;;;;4.80;1.20;;;;;;;19.59;37.04;99237.41;6185956;23;20150;-89
2022/10/30 19:09:47;;;;;;;3.80;1.30;;;;;;;19.61;36.96;99242.56;6160186;23;20212;-88
2022/10/30 19:12:12;;;;;;;3.60;1.17;;;;;;;19.63;36.87;99239.78;6184835;23;20188;-89
2022/10/30 19:14:37;;;;;;;3.23;1.30;;;;;;;19.63;37.06;99237.94;6185835;23;20182;-89
2022/10/30 19:17:03;;;;;;;4.03;1.27;;;;;;;19.59;36.80;99233.88;6186119;23;20646;-89
2022/10/30 19:19:28;;;;;;;4.83;1.10;;;;;;;19.51;37.14;99236.38;6186265;23;20556;-89
2022/10/30 19:21:54;;;;;;;4.70;1.57;;;;;;;19.49;36.77;99233.03;6186213;23;20159;-88
2022/10/30 19:24:19;;;;;;;7.53;1.27;;;;;;;19.52;36.79;99238.06;6159596;23;20446;-88
2022/10/30 19:26:45;;;;;;;2.70;1.10;;;;;;;19.38;37.13;99235.75;6159668;23;20266;-88
2022/10/30 19:29:10;;;;;;;5.40;0.93;;;;;;;19.38;37.00;99231.28;6185811;23;20665;-88
2022/10/30 19:31:35;;;;;;;5.67;1.57;;;;;;;19.26;37.64;99232.31;6185757;23;20593;-89
2022/10/30 19:34:01;;;;;;;4.23;1.53;;;;;;;19.33;37.20;99236.13;6185713;23;20489;-89
2022/10/30 19:36:28;;;;;;;1.23;0.60;;;;;;;19.29;37.31;99233.84;6185563;23;20152;-88
2022/10/30 19:38:54;;;;;;;4.33;1.20;;;;;;;19.05;38.11;99236.00;6159548;23;20224;-88
2022/10/30 19:41:20;;;;;;;2.60;0.97;;;;;;;18.93;37.92;99233.41;6159843;23;20238;-88
2022/10/30 19:43:45;;;;;;;2.20;1.10;;;;;;;18.90;38.14;99236.31;6159056;23;20563;-88
2022/10/30 19:46:13;;;;;;;3.90;1.03;;;;;;;19.04;38.04;99240.47;6185613;23;20150;-89
2022/10/30 19:48:38;;;;;;;3.87;1.33;;;;;;;19.07;37.43;99242.84;6159111;23;20216;-88
2022/10/30 19:51:06;;;;;;;2.60;1.20;;;;;;;19.10;37.46;99242.59;6185417;23;20168;-88